sensor_id;sensor_type;location;lat;lon;timestamp;temperature;humidity
38265;DHT22;24062;47.480;8.768;2023-05-14T00:01:04;8.90;92.90
38265;DHT22;24062;47.480;8.768;2023-05-14T00:03:32;8.90;92.90
38265;DHT22;24062;47.480;8.768;2023-05-14T00:06:01;8.80;92.90
38265;DHT22;24062;47.480;8.768;2023-05-14T00:08:28;8.80;93.00
38265;DHT22;24062;47.480;8.768;2023-05-14T00:10:55;8.80;93.10
38265;DHT22;24062;47.480;8.768;2023-05-14T00:13:21;8.80;93.40
38265;DHT22;24062;47.480;8.768;2023-05-14T00:15:48;8.70;93.50
38265;DHT22;24062;47.480;8.768;2023-05-14T00:18:15;8.70;93.50
38265;DHT22;24062;47.480;8.768;2023-05-14T00:20:42;8.80;93.80
38265;DHT22;24062;47.480;8.768;2023-05-14T00:23:11;8.80;93.80
38265;DHT22;24062;47.480;8.768;2023-05-14T00:25:37;8.90;93.80
38265;DHT22;24062;47.480;8.768;2023-05-14T00:28:04;8.90;93.70
38265;DHT22;24062;47.480;8.768;2023-05-14T00:30:31;8.90;93.70
38265;DHT22;24062;47.480;8.768;2023-05-14T00:32:59;9.00;93.70
38265;DHT22;24062;47.480;8.768;2023-05-14T00:35:26;9.00;93.90
38265;DHT22;24062;47.480;8.768;2023-05-14T00:37:53;9.00;93.80
38265;DHT22;24062;47.480;8.768;2023-05-14T00:40:24;9.00;93.90
38265;DHT22;24062;47.480;8.768;2023-05-14T00:42:51;9.00;93.90
38265;DHT22;24062;47.480;8.768;2023-05-14T00:45:18;9.10;94.10
38265;DHT22;24062;47.480;8.768;2023-05-14T00:47:45;9.10;94.30
38265;DHT22;24062;47.480;8.768;2023-05-14T00:50:13;9.20;94.40
38265;DHT22;24062;47.480;8.768;2023-05-14T00:52:40;9.20;94.40
38265;DHT22;24062;47.480;8.768;2023-05-14T00:55:08;9.30;94.20
38265;DHT22;24062;47.480;8.768;2023-05-14T00:57:38;9.30;94.40
38265;DHT22;24062;47.480;8.768;2023-05-14T01:00:06;9.20;94.50
38265;DHT22;24062;47.480;8.768;2023-05-14T01:02:34;9.30;94.70
38265;DHT22;24062;47.480;8.768;2023-05-14T01:05:02;9.30;94.80
38265;DHT22;24062;47.480;8.768;2023-05-14T01:07:32;9.40;94.90
38265;DHT22;24062;47.480;8.768;2023-05-14T01:10:04;9.40;94.80
38265;DHT22;24062;47.480;8.768;2023-05-14T01:12:42;9.50;94.80
38265;DHT22;24062;47.480;8.768;2023-05-14T01:15:13;9.50;94.80
38265;DHT22;24062;47.480;8.768;2023-05-14T01:17:45;9.50;94.70
38265;DHT22;24062;47.480;8.768;2023-05-14T01:20:12;9.50;94.70
38265;DHT22;24062;47.480;8.768;2023-05-14T01:22:40;9.40;94.80
38265;DHT22;24062;47.480;8.768;2023-05-14T01:25:08;9.40;95.00
38265;DHT22;24062;47.480;8.768;2023-05-14T01:27:40;9.40;95.10
38265;DHT22;24062;47.480;8.768;2023-05-14T01:30:13;9.50;95.10
38265;DHT22;24062;47.480;8.768;2023-05-14T01:32:44;9.50;95.30
38265;DHT22;24062;47.480;8.768;2023-05-14T01:35:13;9.60;95.30
38265;DHT22;24062;47.480;8.768;2023-05-14T01:37:43;9.60;95.20
38265;DHT22;24062;47.480;8.768;2023-05-14T01:40:11;9.70;95.20
38265;DHT22;24062;47.480;8.768;2023-05-14T01:42:39;9.70;95.20
38265;DHT22;24062;47.480;8.768;2023-05-14T01:45:07;9.70;95.10
38265;DHT22;24062;47.480;8.768;2023-05-14T01:47:35;9.60;95.10
38265;DHT22;24062;47.480;8.768;2023-05-14T01:50:02;9.50;95.40
38265;DHT22;24062;47.480;8.768;2023-05-14T01:52:28;9.50;95.70
38265;DHT22;24062;47.480;8.768;2023-05-14T01:54:57;9.50;95.80
38265;DHT22;24062;47.480;8.768;2023-05-14T01:57:24;9.50;96.00
38265;DHT22;24062;47.480;8.768;2023-05-14T01:59:51;9.50;96.20
38265;DHT22;24062;47.480;8.768;2023-05-14T02:02:18;9.70;96.30
38265;DHT22;24062;47.480;8.768;2023-05-14T02:04:45;9.70;96.30
38265;DHT22;24062;47.480;8.768;2023-05-14T02:07:12;9.70;96.30
38265;DHT22;24062;47.480;8.768;2023-05-14T02:09:39;9.70;96.30
38265;DHT22;24062;47.480;8.768;2023-05-14T02:12:08;9.70;96.30
38265;DHT22;24062;47.480;8.768;2023-05-14T02:14:36;9.80;96.60
38265;DHT22;24062;47.480;8.768;2023-05-14T02:17:03;9.80;96.80
38265;DHT22;24062;47.480;8.768;2023-05-14T02:19:30;9.90;96.80
38265;DHT22;24062;47.480;8.768;2023-05-14T02:21:58;10.00;96.30
38265;DHT22;24062;47.480;8.768;2023-05-14T02:24:25;10.00;96.20
38265;DHT22;24062;47.480;8.768;2023-05-14T02:26:52;10.00;96.10
38265;DHT22;24062;47.480;8.768;2023-05-14T02:29:20;10.00;96.10
38265;DHT22;24062;47.480;8.768;2023-05-14T02:31:47;10.00;96.20
38265;DHT22;24062;47.480;8.768;2023-05-14T02:34:14;10.00;96.30
38265;DHT22;24062;47.480;8.768;2023-05-14T02:36:41;10.00;96.30
38265;DHT22;24062;47.480;8.768;2023-05-14T02:39:08;10.00;96.40
38265;DHT22;24062;47.480;8.768;2023-05-14T02:41:35;10.10;96.40
38265;DHT22;24062;47.480;8.768;2023-05-14T02:44:02;10.00;96.10
38265;DHT22;24062;47.480;8.768;2023-05-14T02:46:31;9.90;96.60
38265;DHT22;24062;47.480;8.768;2023-05-14T02:48:58;9.80;96.80
38265;DHT22;24062;47.480;8.768;2023-05-14T02:51:25;9.80;97.20
38265;DHT22;24062;47.480;8.768;2023-05-14T02:53:52;9.80;97.30
38265;DHT22;24062;47.480;8.768;2023-05-14T02:56:19;9.80;97.30
38265;DHT22;24062;47.480;8.768;2023-05-14T02:58:46;9.80;97.50
38265;DHT22;24062;47.480;8.768;2023-05-14T03:01:13;9.90;97.60
38265;DHT22;24062;47.480;8.768;2023-05-14T03:03:42;9.90;97.70
38265;DHT22;24062;47.480;8.768;2023-05-14T03:06:09;9.90;97.70
38265;DHT22;24062;47.480;8.768;2023-05-14T03:08:36;9.90;97.80
38265;DHT22;24062;47.480;8.768;2023-05-14T03:11:03;10.00;97.40
38265;DHT22;24062;47.480;8.768;2023-05-14T03:13:31;10.00;97.40
38265;DHT22;24062;47.480;8.768;2023-05-14T03:15:58;10.00;97.50
38265;DHT22;24062;47.480;8.768;2023-05-14T03:18:25;10.10;97.60
38265;DHT22;24062;47.480;8.768;2023-05-14T03:20:54;10.10;97.60
38265;DHT22;24062;47.480;8.768;2023-05-14T03:23:21;10.10;97.60
38265;DHT22;24062;47.480;8.768;2023-05-14T03:25:48;10.10;97.50
38265;DHT22;24062;47.480;8.768;2023-05-14T03:28:15;10.20;97.60
38265;DHT22;24062;47.480;8.768;2023-05-14T03:30:42;10.10;97.70
38265;DHT22;24062;47.480;8.768;2023-05-14T03:33:09;10.10;97.70
38265;DHT22;24062;47.480;8.768;2023-05-14T03:35:36;10.10;97.60
38265;DHT22;24062;47.480;8.768;2023-05-14T03:38:05;10.10;97.70
38265;DHT22;24062;47.480;8.768;2023-05-14T03:40:32;10.10;97.90
38265;DHT22;24062;47.480;8.768;2023-05-14T03:42:59;10.10;98.00
38265;DHT22;24062;47.480;8.768;2023-05-14T03:45:25;10.20;98.00
38265;DHT22;24062;47.480;8.768;2023-05-14T03:47:54;10.20;97.90
38265;DHT22;24062;47.480;8.768;2023-05-14T03:50:21;10.20;97.90
38265;DHT22;24062;47.480;8.768;2023-05-14T03:52:50;10.20;98.00
38265;DHT22;24062;47.480;8.768;2023-05-14T03:55:18;10.20;98.00
38265;DHT22;24062;47.480;8.768;2023-05-14T03:57:46;10.20;98.00
38265;DHT22;24062;47.480;8.768;2023-05-14T04:00:13;10.20;98.00
38265;DHT22;24062;47.480;8.768;2023-05-14T04:02:41;10.30;97.90
38265;DHT22;24062;47.480;8.768;2023-05-14T04:05:08;10.30;97.80
38265;DHT22;24062;47.480;8.768;2023-05-14T04:07:35;10.20;97.80
38265;DHT22;24062;47.480;8.768;2023-05-14T04:10:02;10.20;97.90
38265;DHT22;24062;47.480;8.768;2023-05-14T04:12:31;10.20;97.90
38265;DHT22;24062;47.480;8.768;2023-05-14T04:14:58;10.20;98.10
38265;DHT22;24062;47.480;8.768;2023-05-14T04:17:25;10.20;98.00
38265;DHT22;24062;47.480;8.768;2023-05-14T04:19:52;10.10;98.00
38265;DHT22;24062;47.480;8.768;2023-05-14T04:22:19;10.10;98.10
38265;DHT22;24062;47.480;8.768;2023-05-14T04:24:46;10.10;98.30
38265;DHT22;24062;47.480;8.768;2023-05-14T04:27:18;10.10;98.50
38265;DHT22;24062;47.480;8.768;2023-05-14T04:29:48;10.10;98.60
38265;DHT22;24062;47.480;8.768;2023-05-14T04:32:15;10.20;98.70
38265;DHT22;24062;47.480;8.768;2023-05-14T04:34:42;10.20;98.70
38265;DHT22;24062;47.480;8.768;2023-05-14T04:37:09;10.20;99.00
38265;DHT22;24062;47.480;8.768;2023-05-14T04:39:37;10.30;99.20
38265;DHT22;24062;47.480;8.768;2023-05-14T04:42:05;10.40;99.20
38265;DHT22;24062;47.480;8.768;2023-05-14T04:44:32;10.50;99.10
38265;DHT22;24062;47.480;8.768;2023-05-14T04:47:01;10.60;99.20
38265;DHT22;24062;47.480;8.768;2023-05-14T04:49:28;10.70;99.10
38265;DHT22;24062;47.480;8.768;2023-05-14T04:51:55;10.70;99.10
38265;DHT22;24062;47.480;8.768;2023-05-14T04:54:22;10.70;99.20
38265;DHT22;24062;47.480;8.768;2023-05-14T04:56:49;10.80;99.40
38265;DHT22;24062;47.480;8.768;2023-05-14T04:59:16;10.90;99.40
38265;DHT22;24062;47.480;8.768;2023-05-14T05:01:43;11.00;99.40
38265;DHT22;24062;47.480;8.768;2023-05-14T05:04:12;11.00;99.30
38265;DHT22;24062;47.480;8.768;2023-05-14T05:06:39;11.00;99.40
38265;DHT22;24062;47.480;8.768;2023-05-14T05:09:06;11.10;99.60
38265;DHT22;24062;47.480;8.768;2023-05-14T05:11:34;11.10;99.40
38265;DHT22;24062;47.480;8.768;2023-05-14T05:14:00;11.10;99.50
38265;DHT22;24062;47.480;8.768;2023-05-14T05:16:27;11.10;99.50
38265;DHT22;24062;47.480;8.768;2023-05-14T05:18:54;11.20;99.70
38265;DHT22;24062;47.480;8.768;2023-05-14T05:21:23;11.20;99.70
38265;DHT22;24062;47.480;8.768;2023-05-14T05:23:50;11.30;99.50
38265;DHT22;24062;47.480;8.768;2023-05-14T05:26:17;11.20;99.40
38265;DHT22;24062;47.480;8.768;2023-05-14T05:28:44;11.20;99.20
38265;DHT22;24062;47.480;8.768;2023-05-14T05:31:11;11.20;99.50
38265;DHT22;24062;47.480;8.768;2023-05-14T05:33:37;11.30;99.50
38265;DHT22;24062;47.480;8.768;2023-05-14T05:36:05;11.40;99.30
38265;DHT22;24062;47.480;8.768;2023-05-14T05:38:33;11.40;99.40
38265;DHT22;24062;47.480;8.768;2023-05-14T05:41:00;11.40;99.90
38265;DHT22;24062;47.480;8.768;2023-05-14T05:43:27;11.60;99.80
38265;DHT22;24062;47.480;8.768;2023-05-14T05:45:54;11.70;99.50
38265;DHT22;24062;47.480;8.768;2023-05-14T05:48:21;11.80;99.00
38265;DHT22;24062;47.480;8.768;2023-05-14T05:50:48;11.80;99.10
38265;DHT22;24062;47.480;8.768;2023-05-14T05:53:16;11.90;99.30
38265;DHT22;24062;47.480;8.768;2023-05-14T05:55:44;11.90;99.40
38265;DHT22;24062;47.480;8.768;2023-05-14T05:58:11;11.90;99.00
38265;DHT22;24062;47.480;8.768;2023-05-14T06:00:40;11.90;99.00
38265;DHT22;24062;47.480;8.768;2023-05-14T06:03:07;11.80;99.10
38265;DHT22;24062;47.480;8.768;2023-05-14T06:05:34;11.90;99.30
38265;DHT22;24062;47.480;8.768;2023-05-14T06:08:01;11.90;99.00
38265;DHT22;24062;47.480;8.768;2023-05-14T06:10:28;11.90;98.70
38265;DHT22;24062;47.480;8.768;2023-05-14T06:12:57;11.90;99.30
38265;DHT22;24062;47.480;8.768;2023-05-14T06:15:24;12.00;99.20
38265;DHT22;24062;47.480;8.768;2023-05-14T06:17:51;12.10;99.80
38265;DHT22;24062;47.480;8.768;2023-05-14T06:20:18;12.20;99.00
38265;DHT22;24062;47.480;8.768;2023-05-14T06:22:45;12.20;98.90
38265;DHT22;24062;47.480;8.768;2023-05-14T06:25:12;12.30;99.20
38265;DHT22;24062;47.480;8.768;2023-05-14T06:27:39;12.30;98.40
38265;DHT22;24062;47.480;8.768;2023-05-14T06:30:08;12.30;98.70
38265;DHT22;24062;47.480;8.768;2023-05-14T06:32:36;12.40;98.90
38265;DHT22;24062;47.480;8.768;2023-05-14T06:35:03;12.40;98.90
38265;DHT22;24062;47.480;8.768;2023-05-14T06:37:30;12.50;98.70
38265;DHT22;24062;47.480;8.768;2023-05-14T06:39:57;12.50;98.30
38265;DHT22;24062;47.480;8.768;2023-05-14T06:42:24;12.50;98.60
38265;DHT22;24062;47.480;8.768;2023-05-14T06:44:52;12.70;99.10
38265;DHT22;24062;47.480;8.768;2023-05-14T06:47:20;12.80;99.20
38265;DHT22;24062;47.480;8.768;2023-05-14T06:49:47;12.90;99.20
38265;DHT22;24062;47.480;8.768;2023-05-14T06:52:14;13.10;99.00
38265;DHT22;24062;47.480;8.768;2023-05-14T06:54:41;13.20;98.80
38265;DHT22;24062;47.480;8.768;2023-05-14T06:57:08;13.30;99.20
38265;DHT22;24062;47.480;8.768;2023-05-14T06:59:35;13.30;99.10
38265;DHT22;24062;47.480;8.768;2023-05-14T07:02:01;13.50;98.70
38265;DHT22;24062;47.480;8.768;2023-05-14T07:04:30;13.50;98.30
38265;DHT22;24062;47.480;8.768;2023-05-14T07:06:57;13.50;98.10
38265;DHT22;24062;47.480;8.768;2023-05-14T07:09:24;13.50;98.50
38265;DHT22;24062;47.480;8.768;2023-05-14T07:11:50;13.60;98.60
38265;DHT22;24062;47.480;8.768;2023-05-14T07:14:17;13.70;98.20
38265;DHT22;24062;47.480;8.768;2023-05-14T07:16:44;13.60;97.80
38265;DHT22;24062;47.480;8.768;2023-05-14T07:19:11;13.50;97.70
38265;DHT22;24062;47.480;8.768;2023-05-14T07:21:40;13.40;98.50
38265;DHT22;24062;47.480;8.768;2023-05-14T07:24:07;13.50;98.80
38265;DHT22;24062;47.480;8.768;2023-05-14T07:26:34;13.60;98.80
38265;DHT22;24062;47.480;8.768;2023-05-14T07:29:01;13.50;98.40
38265;DHT22;24062;47.480;8.768;2023-05-14T07:31:28;13.50;97.30
38265;DHT22;24062;47.480;8.768;2023-05-14T07:33:54;13.30;97.60
38265;DHT22;24062;47.480;8.768;2023-05-14T07:36:21;13.30;98.10
38265;DHT22;24062;47.480;8.768;2023-05-14T07:38:50;13.30;98.40
38265;DHT22;24062;47.480;8.768;2023-05-14T07:41:17;13.40;98.40
38265;DHT22;24062;47.480;8.768;2023-05-14T07:43:43;13.50;98.70
38265;DHT22;24062;47.480;8.768;2023-05-14T07:46:10;13.60;98.60
38265;DHT22;24062;47.480;8.768;2023-05-14T07:48:37;13.60;98.50
38265;DHT22;24062;47.480;8.768;2023-05-14T07:51:04;13.70;98.00
38265;DHT22;24062;47.480;8.768;2023-05-14T07:53:31;13.80;98.00
38265;DHT22;24062;47.480;8.768;2023-05-14T07:56:00;14.00;98.60
38265;DHT22;24062;47.480;8.768;2023-05-14T07:58:26;14.10;98.80
38265;DHT22;24062;47.480;8.768;2023-05-14T08:00:54;14.30;98.40
38265;DHT22;24062;47.480;8.768;2023-05-14T08:03:22;14.40;97.50
38265;DHT22;24062;47.480;8.768;2023-05-14T08:05:49;14.40;97.00
38265;DHT22;24062;47.480;8.768;2023-05-14T08:08:16;14.40;97.30
38265;DHT22;24062;47.480;8.768;2023-05-14T08:10:43;14.50;97.30
38265;DHT22;24062;47.480;8.768;2023-05-14T08:13:11;14.70;97.90
38265;DHT22;24062;47.480;8.768;2023-05-14T08:15:38;14.90;98.00
38265;DHT22;24062;47.480;8.768;2023-05-14T08:18:05;15.20;97.90
38265;DHT22;24062;47.480;8.768;2023-05-14T08:20:32;15.40;97.00
38265;DHT22;24062;47.480;8.768;2023-05-14T08:22:59;15.30;96.00
38265;DHT22;24062;47.480;8.768;2023-05-14T08:25:26;15.20;95.70
38265;DHT22;24062;47.480;8.768;2023-05-14T08:27:53;15.30;95.40
38265;DHT22;24062;47.480;8.768;2023-05-14T08:30:21;15.30;96.50
38265;DHT22;24062;47.480;8.768;2023-05-14T08:32:48;15.50;96.40
38265;DHT22;24062;47.480;8.768;2023-05-14T08:35:16;15.60;96.10
38265;DHT22;24062;47.480;8.768;2023-05-14T08:37:43;15.70;96.00
38265;DHT22;24062;47.480;8.768;2023-05-14T08:40:11;15.80;95.60
38265;DHT22;24062;47.480;8.768;2023-05-14T08:42:38;15.90;96.20
38265;DHT22;24062;47.480;8.768;2023-05-14T08:45:10;16.10;95.00
38265;DHT22;24062;47.480;8.768;2023-05-14T08:47:40;16.40;95.60
38265;DHT22;24062;47.480;8.768;2023-05-14T08:50:08;16.60;95.30
38265;DHT22;24062;47.480;8.768;2023-05-14T08:52:36;16.90;94.90
38265;DHT22;24062;47.480;8.768;2023-05-14T08:55:04;17.00;93.50
38265;DHT22;24062;47.480;8.768;2023-05-14T08:57:33;16.90;93.00
38265;DHT22;24062;47.480;8.768;2023-05-14T09:00:00;16.80;93.00
38265;DHT22;24062;47.480;8.768;2023-05-14T09:02:33;16.60;92.30
38265;DHT22;24062;47.480;8.768;2023-05-14T09:05:02;16.20;92.20
38265;DHT22;24062;47.480;8.768;2023-05-14T09:07:29;15.90;92.70
38265;DHT22;24062;47.480;8.768;2023-05-14T09:09:56;15.70;93.00
38265;DHT22;24062;47.480;8.768;2023-05-14T09:12:23;15.50;92.90
38265;DHT22;24062;47.480;8.768;2023-05-14T09:14:50;15.20;92.90
38265;DHT22;24062;47.480;8.768;2023-05-14T09:17:17;14.90;93.20
38265;DHT22;24062;47.480;8.768;2023-05-14T09:19:45;14.60;93.30
38265;DHT22;24062;47.480;8.768;2023-05-14T09:22:18;14.40;93.80
38265;DHT22;24062;47.480;8.768;2023-05-14T09:24:45;14.40;94.40
38265;DHT22;24062;47.480;8.768;2023-05-14T09:27:17;14.50;94.50
38265;DHT22;24062;47.480;8.768;2023-05-14T09:29:45;14.60;95.00
38265;DHT22;24062;47.480;8.768;2023-05-14T09:32:13;14.80;94.90
38265;DHT22;24062;47.480;8.768;2023-05-14T09:34:40;15.00;95.30
38265;DHT22;24062;47.480;8.768;2023-05-14T09:37:08;15.20;95.30
38265;DHT22;24062;47.480;8.768;2023-05-14T09:39:37;15.40;94.50
38265;DHT22;24062;47.480;8.768;2023-05-14T09:42:04;15.50;94.60
38265;DHT22;24062;47.480;8.768;2023-05-14T09:44:31;15.60;94.70
38265;DHT22;24062;47.480;8.768;2023-05-14T09:47:00;15.80;94.40
38265;DHT22;24062;47.480;8.768;2023-05-14T09:49:28;16.00;95.20
38265;DHT22;24062;47.480;8.768;2023-05-14T09:51:55;16.40;95.40
38265;DHT22;24062;47.480;8.768;2023-05-14T09:54:24;16.70;94.60
38265;DHT22;24062;47.480;8.768;2023-05-14T09:56:53;17.10;93.90
38265;DHT22;24062;47.480;8.768;2023-05-14T09:59:20;17.20;93.10
38265;DHT22;24062;47.480;8.768;2023-05-14T10:01:48;17.50;93.20
38265;DHT22;24062;47.480;8.768;2023-05-14T10:04:15;17.70;92.00
38265;DHT22;24062;47.480;8.768;2023-05-14T10:06:46;17.80;92.80
38265;DHT22;24062;47.480;8.768;2023-05-14T10:09:18;18.00;92.00
38265;DHT22;24062;47.480;8.768;2023-05-14T10:11:49;18.10;90.50
38265;DHT22;24062;47.480;8.768;2023-05-14T10:14:25;18.10;91.20
38265;DHT22;24062;47.480;8.768;2023-05-14T10:16:55;18.30;91.10
38265;DHT22;24062;47.480;8.768;2023-05-14T10:19:25;18.30;90.70
38265;DHT22;24062;47.480;8.768;2023-05-14T10:21:55;18.20;88.50
38265;DHT22;24062;47.480;8.768;2023-05-14T10:24:23;18.10;88.60
38265;DHT22;24062;47.480;8.768;2023-05-14T10:26:51;17.90;86.90
38265;DHT22;24062;47.480;8.768;2023-05-14T10:29:18;17.90;90.20
38265;DHT22;24062;47.480;8.768;2023-05-14T10:31:48;18.00;88.90
38265;DHT22;24062;47.480;8.768;2023-05-14T10:34:32;18.00;88.20
38265;DHT22;24062;47.480;8.768;2023-05-14T10:37:02;18.10;86.80
38265;DHT22;24062;47.480;8.768;2023-05-14T10:39:45;18.20;86.60
38265;DHT22;24062;47.480;8.768;2023-05-14T10:42:15;18.20;86.60
38265;DHT22;24062;47.480;8.768;2023-05-14T10:44:53;18.10;86.10
38265;DHT22;24062;47.480;8.768;2023-05-14T10:47:24;18.10;86.90
38265;DHT22;24062;47.480;8.768;2023-05-14T10:49:53;18.00;87.30
38265;DHT22;24062;47.480;8.768;2023-05-14T10:52:21;17.80;86.70
38265;DHT22;24062;47.480;8.768;2023-05-14T10:54:50;17.60;87.10
38265;DHT22;24062;47.480;8.768;2023-05-14T10:57:18;17.40;86.60
38265;DHT22;24062;47.480;8.768;2023-05-14T10:59:46;17.20;86.80
38265;DHT22;24062;47.480;8.768;2023-05-14T11:02:24;17.10;87.00
38265;DHT22;24062;47.480;8.768;2023-05-14T11:04:55;17.00;86.60
38265;DHT22;24062;47.480;8.768;2023-05-14T11:07:26;16.90;86.90
38265;DHT22;24062;47.480;8.768;2023-05-14T11:09:59;16.90;87.20
38265;DHT22;24062;47.480;8.768;2023-05-14T11:12:27;16.80;87.90
38265;DHT22;24062;47.480;8.768;2023-05-14T11:14:56;16.80;87.20
38265;DHT22;24062;47.480;8.768;2023-05-14T11:17:25;16.80;87.40
38265;DHT22;24062;47.480;8.768;2023-05-14T11:19:52;16.80;86.50
38265;DHT22;24062;47.480;8.768;2023-05-14T11:22:19;16.90;86.70
38265;DHT22;24062;47.480;8.768;2023-05-14T11:24:46;16.90;85.80
38265;DHT22;24062;47.480;8.768;2023-05-14T11:27:14;17.30;89.00
38265;DHT22;24062;47.480;8.768;2023-05-14T11:29:43;17.70;84.70
38265;DHT22;24062;47.480;8.768;2023-05-14T11:32:11;17.90;86.00
38265;DHT22;24062;47.480;8.768;2023-05-14T11:34:40;18.10;84.80
38265;DHT22;24062;47.480;8.768;2023-05-14T11:37:09;18.50;84.40
38265;DHT22;24062;47.480;8.768;2023-05-14T11:39:37;18.90;83.40
38265;DHT22;24062;47.480;8.768;2023-05-14T11:42:09;19.20;82.60
38265;DHT22;24062;47.480;8.768;2023-05-14T11:44:37;19.60;82.70
38265;DHT22;24062;47.480;8.768;2023-05-14T11:47:04;19.90;82.30
38265;DHT22;24062;47.480;8.768;2023-05-14T11:49:32;20.10;82.20
38265;DHT22;24062;47.480;8.768;2023-05-14T11:52:03;20.30;80.30
38265;DHT22;24062;47.480;8.768;2023-05-14T11:54:31;19.90;75.90
38265;DHT22;24062;47.480;8.768;2023-05-14T11:56:59;19.30;77.40
38265;DHT22;24062;47.480;8.768;2023-05-14T11:59:28;18.50;78.80
38265;DHT22;24062;47.480;8.768;2023-05-14T12:01:56;17.20;82.10
38265;DHT22;24062;47.480;8.768;2023-05-14T12:04:23;16.10;85.40
38265;DHT22;24062;47.480;8.768;2023-05-14T12:06:51;15.50;87.60
38265;DHT22;24062;47.480;8.768;2023-05-14T12:09:20;15.20;88.60
38265;DHT22;24062;47.480;8.768;2023-05-14T12:11:49;14.90;88.90
38265;DHT22;24062;47.480;8.768;2023-05-14T12:14:17;14.80;90.00
38265;DHT22;24062;47.480;8.768;2023-05-14T12:16:45;14.80;90.60
38265;DHT22;24062;47.480;8.768;2023-05-14T12:19:14;14.70;90.50
38265;DHT22;24062;47.480;8.768;2023-05-14T12:21:42;14.60;90.80
38265;DHT22;24062;47.480;8.768;2023-05-14T12:24:11;14.50;90.80
38265;DHT22;24062;47.480;8.768;2023-05-14T12:26:39;14.40;90.90
38265;DHT22;24062;47.480;8.768;2023-05-14T12:29:12;14.30;91.50
38265;DHT22;24062;47.480;8.768;2023-05-14T12:31:44;14.20;91.40
38265;DHT22;24062;47.480;8.768;2023-05-14T12:34:12;14.00;91.60
38265;DHT22;24062;47.480;8.768;2023-05-14T12:36:39;13.90;92.20
38265;DHT22;24062;47.480;8.768;2023-05-14T12:39:06;14.00;92.60
38265;DHT22;24062;47.480;8.768;2023-05-14T12:41:33;14.10;92.90
38265;DHT22;24062;47.480;8.768;2023-05-14T12:44:02;14.30;93.20
38265;DHT22;24062;47.480;8.768;2023-05-14T12:46:29;14.40;93.30
38265;DHT22;24062;47.480;8.768;2023-05-14T12:48:56;14.60;94.20
38265;DHT22;24062;47.480;8.768;2023-05-14T12:51:23;15.10;94.90
38265;DHT22;24062;47.480;8.768;2023-05-14T12:53:50;15.40;94.00
38265;DHT22;24062;47.480;8.768;2023-05-14T12:56:19;15.60;94.10
38265;DHT22;24062;47.480;8.768;2023-05-14T12:58:46;15.80;94.90
38265;DHT22;24062;47.480;8.768;2023-05-14T13:01:14;16.20;94.90
38265;DHT22;24062;47.480;8.768;2023-05-14T13:03:41;16.20;94.20
38265;DHT22;24062;47.480;8.768;2023-05-14T13:06:08;16.00;93.10
38265;DHT22;24062;47.480;8.768;2023-05-14T13:08:35;15.90;93.60
38265;DHT22;24062;47.480;8.768;2023-05-14T13:11:02;16.00;93.80
38265;DHT22;24062;47.480;8.768;2023-05-14T13:13:28;16.50;95.30
38265;DHT22;24062;47.480;8.768;2023-05-14T13:15:55;17.70;97.00
38265;DHT22;24062;47.480;8.768;2023-05-14T13:18:24;18.40;92.60
38265;DHT22;24062;47.480;8.768;2023-05-14T13:20:52;18.90;92.80
38265;DHT22;24062;47.480;8.768;2023-05-14T13:23:19;19.40;94.20
38265;DHT22;24062;47.480;8.768;2023-05-14T13:25:46;19.60;91.00
38265;DHT22;24062;47.480;8.768;2023-05-14T13:28:13;19.10;89.00
38265;DHT22;24062;47.480;8.768;2023-05-14T13:30:40;18.90;91.90
38265;DHT22;24062;47.480;8.768;2023-05-14T13:33:07;18.90;91.80
38265;DHT22;24062;47.480;8.768;2023-05-14T13:35:35;19.00;91.80
38265;DHT22;24062;47.480;8.768;2023-05-14T13:38:02;18.80;91.00
38265;DHT22;24062;47.480;8.768;2023-05-14T13:40:29;18.60;91.40
38265;DHT22;24062;47.480;8.768;2023-05-14T13:42:56;18.50;91.20
38265;DHT22;24062;47.480;8.768;2023-05-14T13:45:23;18.20;90.50
38265;DHT22;24062;47.480;8.768;2023-05-14T13:47:50;17.80;90.60
38265;DHT22;24062;47.480;8.768;2023-05-14T13:50:17;17.60;90.50
38265;DHT22;24062;47.480;8.768;2023-05-14T13:52:45;17.70;91.20
38265;DHT22;24062;47.480;8.768;2023-05-14T13:55:12;17.90;90.90
38265;DHT22;24062;47.480;8.768;2023-05-14T13:57:39;18.10;91.00
38265;DHT22;24062;47.480;8.768;2023-05-14T14:00:08;18.30;90.90
38265;DHT22;24062;47.480;8.768;2023-05-14T14:02:35;18.30;90.30
38265;DHT22;24062;47.480;8.768;2023-05-14T14:05:02;18.10;89.60
38265;DHT22;24062;47.480;8.768;2023-05-14T14:07:29;17.90;90.00
38265;DHT22;24062;47.480;8.768;2023-05-14T14:09:58;17.80;90.70
38265;DHT22;24062;47.480;8.768;2023-05-14T14:12:26;17.80;89.70
38265;DHT22;24062;47.480;8.768;2023-05-14T14:14:53;17.30;89.80
38265;DHT22;24062;47.480;8.768;2023-05-14T14:17:20;16.90;91.10
38265;DHT22;24062;47.480;8.768;2023-05-14T14:19:46;16.80;91.30
38265;DHT22;24062;47.480;8.768;2023-05-14T14:22:13;16.60;91.30
38265;DHT22;24062;47.480;8.768;2023-05-14T14:24:41;16.60;91.30
38265;DHT22;24062;47.480;8.768;2023-05-14T14:27:10;16.60;91.50
38265;DHT22;24062;47.480;8.768;2023-05-14T14:29:37;16.50;91.60
38265;DHT22;24062;47.480;8.768;2023-05-14T14:32:04;16.60;91.60
38265;DHT22;24062;47.480;8.768;2023-05-14T14:34:31;16.50;91.60
38265;DHT22;24062;47.480;8.768;2023-05-14T14:36:58;16.50;91.40
38265;DHT22;24062;47.480;8.768;2023-05-14T14:39:25;16.40;91.30
38265;DHT22;24062;47.480;8.768;2023-05-14T14:41:52;16.40;91.30
38265;DHT22;24062;47.480;8.768;2023-05-14T14:44:21;16.30;91.10
38265;DHT22;24062;47.480;8.768;2023-05-14T14:46:48;16.20;91.30
38265;DHT22;24062;47.480;8.768;2023-05-14T14:49:15;16.20;91.30
38265;DHT22;24062;47.480;8.768;2023-05-14T14:51:42;16.20;91.30
38265;DHT22;24062;47.480;8.768;2023-05-14T14:54:09;16.20;91.00
38265;DHT22;24062;47.480;8.768;2023-05-14T14:56:36;16.20;91.40
38265;DHT22;24062;47.480;8.768;2023-05-14T14:59:03;16.10;90.60
38265;DHT22;24062;47.480;8.768;2023-05-14T15:01:32;15.80;90.80
38265;DHT22;24062;47.480;8.768;2023-05-14T15:03:58;15.60;91.30
38265;DHT22;24062;47.480;8.768;2023-05-14T15:06:25;15.60;91.10
38265;DHT22;24062;47.480;8.768;2023-05-14T15:08:52;15.30;90.70
38265;DHT22;24062;47.480;8.768;2023-05-14T15:11:19;15.10;90.70
38265;DHT22;24062;47.480;8.768;2023-05-14T15:13:46;14.90;91.60
38265;DHT22;24062;47.480;8.768;2023-05-14T15:16:13;15.20;91.80
38265;DHT22;24062;47.480;8.768;2023-05-14T15:18:41;15.20;91.50
38265;DHT22;24062;47.480;8.768;2023-05-14T15:21:08;15.00;90.80
38265;DHT22;24062;47.480;8.768;2023-05-14T15:23:35;14.70;91.10
38265;DHT22;24062;47.480;8.768;2023-05-14T15:26:03;14.40;91.40
38265;DHT22;24062;47.480;8.768;2023-05-14T15:28:30;14.20;91.80
38265;DHT22;24062;47.480;8.768;2023-05-14T15:30:57;14.10;92.20
38265;DHT22;24062;47.480;8.768;2023-05-14T15:33:24;14.20;92.00
38265;DHT22;24062;47.480;8.768;2023-05-14T15:35:52;14.20;92.40